Corona Ace — 3ELE3 — position and weather

sailwx.info

Track history (hours):
 
Tides and Currents Weather Stations Pressure Air Temp Water Temp Dewpoint Dewpoint Depression Visibility Wind Speed Wind Dir Waves Ship Positions

Corona Ace

Last reported at 2018-Feb-12 19:31 UTC. Time now 2018-Feb-20 19:55 UTC.
Position S 20°13' E 150°18'.
Warning: this ship's position is 8 days out of date.

Length 229 m; draft 12.7 m.

Type: Cargo ship. MMSI: 357173000.

Date/timePositionNaut miles runAvg speedWind from/ knotsBaromVisibWave heightAir tempDewpointWater temp
2018-Feb-12 19:31S 20°13' E 150°18'010.8
2018-Feb-12 19:31S 20°13' E 150°18'1112.0
2018-Feb-12 18:35S 20°24' E 150°21'112.6
2018-Feb-12 18:28S 20°25' E 150°21'1311.4
2018-Feb-12 17:19S 20°37' E 150°13'1513.5
2018-Feb-12 16:13S 20°44' E 149°60'513.5
2018-Feb-12 15:50S 20°46' E 149°55'913.5
2018-Feb-12 15:12S 20°52' E 149°48'413.4
2018-Feb-12 14:56S 20°54' E 149°44'2812.7
2018-Feb-12 12:42S 21°14' E 149°24'4 9.1
2018-Feb-12 12:15S 21°15' E 149°19'  
Track history (hours):
 
Tides and Currents Weather Stations Pressure Air Temp Water Temp Dewpoint Dewpoint Depression Visibility Wind Speed Wind Dir Waves Ship Positions

Corona Ace

Last reported at 2018-Feb-12 19:31 UTC. Time now 2018-Feb-20 19:55 UTC.
Position S 20°13' E 150°18'.
Warning: this ship's position is 8 days out of date.

Length 229 m; draft 12.7 m.

Type: Cargo ship. MMSI: 357173000.

Date/timePositionNaut miles runAvg speedWind from/ knotsBaromVisibWave heightAir tempDewpointWater temp
2018-Feb-12 19:31S 20°13' E 150°18'010.8
2018-Feb-12 19:31S 20°13' E 150°18'1112.0
2018-Feb-12 18:35S 20°24' E 150°21'112.6
2018-Feb-12 18:28S 20°25' E 150°21'1311.4
2018-Feb-12 17:19S 20°37' E 150°13'1513.5
2018-Feb-12 16:13S 20°44' E 149°60'513.5
2018-Feb-12 15:50S 20°46' E 149°55'913.5
2018-Feb-12 15:12S 20°52' E 149°48'413.4
2018-Feb-12 14:56S 20°54' E 149°44'2812.7
2018-Feb-12 12:42S 21°14' E 149°24'4 9.1
2018-Feb-12 12:15S 21°15' E 149°19'  

Dump ship's entire track history